TimeEST,TemperatureF,Dew PointF,Humidity,Sea Level PressureIn,VisibilityMPH,Wind Direction,Wind SpeedMPH,Gust SpeedMPH,PrecipitationIn,Events,Conditions,WindDirDegrees,DateUTC
12:54 AM,26.1,25.0,96,30.05,10.0,Calm,Calm,-,N/A,,Clear,0,2012-11-10 05:54:00
1:54 AM,26.1,24.1,92,30.07,10.0,Calm,Calm,-,N/A,,Clear,0,2012-11-10 06:54:00
2:54 AM,34.0,28.9,82,30.08,10.0,NW,5.8,-,N/A,,Clear,310,2012-11-10 07:54:00
3:54 AM,36.0,28.0,73,30.10,10.0,NW,3.5,-,N/A,,Clear,310,2012-11-10 08:54:00
4:54 AM,34.0,27.0,75,30.12,10.0,Calm,Calm,-,N/A,,Clear,0,2012-11-10 09:54:00
5:54 AM,37.9,27.0,65,30.14,10.0,NNW,3.5,-,N/A,,Clear,340,2012-11-10 10:54:00
6:54 AM,37.9,27.0,65,30.19,10.0,Calm,Calm,-,N/A,,Clear,0,2012-11-10 11:54:00
7:54 AM,37.9,30.9,76,30.22,10.0,Calm,Calm,-,0.00,,Clear,0,2012-11-10 12:54:00
8:54 AM,45.0,28.9,53,30.24,10.0,ENE,4.6,-,N/A,,Clear,70,2012-11-10 13:54:00
9:54 AM,45.0,27.0,49,30.27,10.0,NE,4.6,-,N/A,,Clear,40,2012-11-10 14:54:00
10:54 AM,46.9,25.0,42,30.28,10.0,Variable,3.5,-,N/A,,Clear,0,2012-11-10 15:54:00
11:54 AM,46.9,21.9,37,30.29,10.0,North,5.8,-,N/A,,Clear,10,2012-11-10 16:54:00
12:54 PM,48.0,21.0,34,30.30,10.0,Calm,Calm,-,N/A,,Clear,0,2012-11-10 17:54:00
1:54 PM,48.9,21.9,35,30.30,10.0,Variable,3.5,-,N/A,,Clear,0,2012-11-10 18:54:00
2:54 PM,48.9,21.0,33,30.31,10.0,NNE,4.6,-,N/A,,Clear,20,2012-11-10 19:54:00
3:54 PM,46.0,18.0,33,30.34,10.0,NE,5.8,-,N/A,,Clear,50,2012-11-10 20:54:00
4:54 PM,34.0,23.0,64,30.36,10.0,NNW,3.5,-,N/A,,Clear,340,2012-11-10 21:54:00
5:54 PM,30.9,21.9,69,30.39,10.0,Calm,Calm,-,N/A,,Clear,0,2012-11-10 22:54:00
6:54 PM,28.9,23.0,78,30.43,10.0,SW,3.5,-,0.00,,Clear,220,2012-11-10 23:54:00
7:54 PM,27.0,21.9,81,30.44,10.0,Calm,Calm,-,N/A,,Clear,0,2012-11-11 00:54:00
8:54 PM,26.1,21.0,81,30.46,10.0,Calm,Calm,-,N/A,,Clear,0,2012-11-11 01:54:00
9:54 PM,26.1,21.9,84,30.48,10.0,Calm,Calm,-,N/A,,Clear,0,2012-11-11 02:54:00
11:54 PM,30.9,25.0,79,30.47,10.0,Calm,Calm,-,0.00,,Mostly Cloudy,0,2012-11-11 04:54:00